Wendel, West Virginia
Current Conditions -  °F | °C
As of 2:15 PM on Tuesday 21 Oct 2014 (Local Time) from KCKB Reporting Station
Light Rain Light Rain  
Wind Chill: 11°   Ceiling: 1300
Heat Index: 11°   Visibility: 9mi
Dew Point: 10°   Wind: 6mph
Humidity: 93%   Direction: 280°W
Pressure: 29.89"   Gusts: NA
Location:  39.2753°N, 80.1249°W
Report Text: KCKB 211815Z 28005KT 9SM -RA SCT006 BKN013 OVC019 11/10 A2989 RMK AO2 T01110100 PNO $
Loading
Personal Weather Stations






























Interactive Weather Map
Tropical Storm Tracking
New forecast layout! Learn more

10-Day Weather Forecast

Advertisements
Track Severe Weather on mobile